createdAt,value
2023-05-24T00:02:04.693Z,7.80
2023-05-24T00:05:10.064Z,8.00
2023-05-24T00:08:15.786Z,7.37
2023-05-24T00:11:21.995Z,7.53
2023-05-24T00:14:27.750Z,8.25
2023-05-24T00:17:36.510Z,7.78
2023-05-24T00:20:42.917Z,8.55
2023-05-24T00:23:51.133Z,7.25
2023-05-24T00:26:57.115Z,6.95
2023-05-24T00:30:02.305Z,6.72
2023-05-24T00:33:08.134Z,6.30
2023-05-24T00:36:13.957Z,6.00
2023-05-24T00:39:19.768Z,6.53
2023-05-24T00:42:26.287Z,6.28
2023-05-24T00:45:33.694Z,6.33
2023-05-24T00:48:39.471Z,6.35
2023-05-24T00:51:45.678Z,6.55
2023-05-24T00:54:50.997Z,6.40
2023-05-24T00:57:57.719Z,6.70
2023-05-24T01:01:05.542Z,6.00
2023-05-24T01:04:11.384Z,6.12
2023-05-24T01:07:45.532Z,6.35
2023-05-24T01:11:15.853Z,5.83
2023-05-24T01:17:38.638Z,5.95
2023-05-24T01:20:47.667Z,6.58
2023-05-24T01:24:11.074Z,5.95
2023-05-24T01:27:23.997Z,6.25
2023-05-24T01:30:28.512Z,5.80
2023-05-24T01:33:33.977Z,5.83
2023-05-24T01:36:39.585Z,5.87
2023-05-24T01:39:45.193Z,9.50
2023-05-24T01:43:04.038Z,11.28
2023-05-24T01:46:40.563Z,11.15
2023-05-24T01:49:48.906Z,11.10
2023-05-24T01:52:56.018Z,12.10
2023-05-24T01:56:03.456Z,12.47
2023-05-24T01:59:09.066Z,12.53
2023-05-24T02:02:14.890Z,11.20
2023-05-24T02:05:21.453Z,9.13
2023-05-24T02:08:27.164Z,6.28
2023-05-24T02:11:31.948Z,6.00
2023-05-24T02:14:38.056Z,8.18
2023-05-24T02:17:44.371Z,7.95
2023-05-24T02:20:52.005Z,6.83
2023-05-24T02:23:57.785Z,6.83
2023-05-24T02:27:02.956Z,6.65
2023-05-24T02:30:09.110Z,6.90
2023-05-24T02:33:15.408Z,7.08
2023-05-24T02:36:21.531Z,6.53
2023-05-24T02:39:26.659Z,6.55
2023-05-24T02:42:32.546Z,6.58
2023-05-24T02:45:37.996Z,5.92
2023-05-24T02:48:36.906Z,6.60
2023-05-24T02:51:35.835Z,6.22
2023-05-24T02:54:41.360Z,6.10
2023-05-24T02:57:48.199Z,6.00
2023-05-24T03:00:55.288Z,6.00
2023-05-24T03:04:00.817Z,5.75
2023-05-24T03:07:06.936Z,5.90
2023-05-24T03:10:14.384Z,5.37
2023-05-24T03:13:18.653Z,5.62
2023-05-24T05:39:20.299Z,4.33
2023-05-24T05:42:26.402Z,4.28
2023-05-24T05:45:32.423Z,5.83
2023-05-24T05:48:38.403Z,3.17
2023-05-24T05:51:46.148Z,3.30
2023-05-24T05:54:54.745Z,2.50
2023-05-24T05:58:01.007Z,2.90
2023-05-24T06:01:07.845Z,2.42
2023-05-24T06:04:14.440Z,2.85
2023-05-24T06:07:20.854Z,2.72
2023-05-24T06:10:28.025Z,2.70
2023-05-24T06:13:34.866Z,3.05
2023-05-24T06:16:41.797Z,3.35
2023-05-24T06:19:40.423Z,4.45
2023-05-24T06:22:47.171Z,3.72
2023-05-24T06:25:53.606Z,2.58
2023-05-24T13:15:35.767Z,6.92
2023-05-24T13:18:41.610Z,6.42
2023-05-24T13:21:48.300Z,5.97
2023-05-24T13:24:54.231Z,5.15
2023-05-24T13:28:00.787Z,5.35
2023-05-24T13:31:07.387Z,4.30
2023-05-24T13:34:12.650Z,5.03
2023-05-24T13:37:18.280Z,5.17
2023-05-24T13:40:25.311Z,4.70
2023-05-24T13:43:31.860Z,4.60
2023-05-24T13:46:37.874Z,3.62
2023-05-24T13:49:44.508Z,3.20
2023-05-24T13:52:50.020Z,3.75
2023-05-24T13:55:56.482Z,3.70
2023-05-24T13:59:03.953Z,3.80
2023-05-24T14:02:09.538Z,3.55
2023-05-24T14:05:26.824Z,4.42
2023-05-24T14:08:22.392Z,4.67
2023-05-24T14:11:28.720Z,3.90
2023-05-24T14:17:36.258Z,4.33
2023-05-24T14:20:44.071Z,3.72
2023-05-24T14:23:51.183Z,4.17
2023-05-24T14:26:57.803Z,3.02
2023-05-24T14:30:03.442Z,3.35
2023-05-24T14:33:09.105Z,4.12
2023-05-24T14:36:15.581Z,3.70
2023-05-24T14:39:22.024Z,3.77
2023-05-24T14:42:27.656Z,3.30
2023-05-24T14:45:34.046Z,4.53
2023-05-24T14:48:33.948Z,3.72
2023-05-24T14:51:38.988Z,4.08
2023-05-24T14:54:45.620Z,3.52
2023-05-24T14:57:50.930Z,4.67
2023-05-24T15:00:57.266Z,3.77
2023-05-24T15:04:02.539Z,3.58
2023-05-24T15:07:07.275Z,4.45
2023-05-24T15:10:13.472Z,5.62
2023-05-24T15:13:20.536Z,5.78
2023-05-24T15:16:26.651Z,4.37
2023-05-24T15:19:32.963Z,5.03
2023-05-24T15:22:41.273Z,5.92
2023-05-24T15:25:47.582Z,5.47
2023-05-24T15:28:54.060Z,4.17
2023-05-24T15:32:00.662Z,3.90
2023-05-24T15:35:07.129Z,3.70
2023-05-24T15:38:13.479Z,5.22
2023-05-24T15:41:19.150Z,4.12
2023-05-24T15:44:25.601Z,3.95
2023-05-24T15:47:33.949Z,3.98
2023-05-24T15:53:51.308Z,3.45
2023-05-24T15:56:57.319Z,4.08
2023-05-24T16:00:04.269Z,3.90
2023-05-24T16:03:13.023Z,3.90
2023-05-24T16:06:19.242Z,4.10
2023-05-24T16:09:25.272Z,3.40
2023-05-24T16:12:33.020Z,3.83
2023-05-24T16:15:39.937Z,3.42
2023-05-24T16:18:45.838Z,4.22
2023-05-24T16:21:53.067Z,3.35
2023-05-24T16:24:59.909Z,3.83
2023-05-24T16:28:07.198Z,4.25
2023-05-24T16:31:12.771Z,3.77
2023-05-24T16:34:18.108Z,4.33
2023-05-24T16:37:24.208Z,4.90
2023-05-24T16:40:30.297Z,4.10
2023-05-24T16:43:36.622Z,4.70
2023-05-24T16:46:44.164Z,5.28
2023-05-24T16:49:50.070Z,4.50
2023-05-24T16:53:00.271Z,5.22
2023-05-24T16:56:07.191Z,4.10
2023-05-24T16:59:12.656Z,4.37
2023-05-24T17:02:18.576Z,4.50
2023-05-24T17:05:24.709Z,4.67
2023-05-24T17:08:33.175Z,4.05
2023-05-24T17:11:39.693Z,5.28
2023-05-24T17:14:44.889Z,5.55
2023-05-24T17:17:51.074Z,6.30
2023-05-24T17:20:57.937Z,6.10
2023-05-24T17:24:03.571Z,5.90
2023-05-24T17:27:11.314Z,7.37
2023-05-24T17:30:16.160Z,6.95
2023-05-24T17:33:23.327Z,6.80
2023-05-24T17:36:29.200Z,7.10
2023-05-24T17:39:34.042Z,7.35
2023-05-24T17:42:40.416Z,7.83
2023-05-24T17:45:45.814Z,7.10
2023-05-24T17:48:54.847Z,7.30
2023-05-24T17:52:01.396Z,7.42
2023-05-24T17:55:07.236Z,7.53
2023-05-24T17:58:12.536Z,7.25
2023-05-24T18:01:13.381Z,7.47
2023-05-24T18:04:18.831Z,7.08
2023-05-24T18:07:26.137Z,6.87
2023-05-24T18:10:32.393Z,7.35
2023-05-24T18:13:36.992Z,7.55
2023-05-24T18:16:41.853Z,6.75
2023-05-24T18:19:48.777Z,6.05
2023-05-24T18:22:55.198Z,6.20
2023-05-24T18:26:00.180Z,6.53
2023-05-24T18:29:03.500Z,6.80
2023-05-24T18:32:09.398Z,5.95
2023-05-24T18:35:14.349Z,6.47
2023-05-24T18:38:20.542Z,5.95
2023-05-24T18:41:25.846Z,6.67
2023-05-24T18:44:31.121Z,6.30
2023-05-24T18:47:38.335Z,6.87
2023-05-24T18:50:43.542Z,7.08
2023-05-24T18:53:48.891Z,7.12
2023-05-24T18:56:48.457Z,6.72
2023-05-24T18:59:55.258Z,6.08
2023-05-24T19:03:02.530Z,6.83
2023-05-24T19:06:08.553Z,6.55
2023-05-24T19:09:14.224Z,6.28
2023-05-24T19:12:19.474Z,6.67
2023-05-24T19:15:26.026Z,6.37
2023-05-24T19:18:32.007Z,6.60
2023-05-24T19:21:38.014Z,6.83
2023-05-24T19:24:42.244Z,6.72
2023-05-24T19:27:59.149Z,6.28
2023-05-24T19:30:55.689Z,6.80
2023-05-24T19:34:03.038Z,6.67
2023-05-24T19:37:08.430Z,5.55
2023-05-24T19:40:15.003Z,5.58
2023-05-24T19:43:22.027Z,6.28
2023-05-24T19:46:28.401Z,5.80
2023-05-24T19:49:33.381Z,7.08
2023-05-24T19:52:38.703Z,6.15
2023-05-24T19:55:45.218Z,6.53
2023-05-24T19:58:51.129Z,6.58
2023-05-24T20:01:58.736Z,5.90
2023-05-24T20:05:05.178Z,5.75
2023-05-24T20:08:11.841Z,6.08
2023-05-24T20:11:18.671Z,5.90
2023-05-24T20:14:25.320Z,5.80
2023-05-24T20:17:31.060Z,6.00
2023-05-24T20:20:37.554Z,6.00
2023-05-24T20:23:44.115Z,5.30
2023-05-24T20:26:51.293Z,5.83
2023-05-24T20:29:57.903Z,6.50
2023-05-24T20:33:03.856Z,6.55
2023-05-24T20:36:10.290Z,6.45
2023-05-24T20:39:15.693Z,6.22
2023-05-24T20:42:21.245Z,5.85
2023-05-24T20:45:26.800Z,6.22
2023-05-24T20:48:33.100Z,5.97
2023-05-24T20:51:39.008Z,6.05
2023-05-24T20:54:44.600Z,5.42
2023-05-24T20:57:52.186Z,5.42
2023-05-24T21:00:59.246Z,4.95
2023-05-24T21:04:04.683Z,4.85
2023-05-24T21:07:11.249Z,5.28
2023-05-24T21:10:16.059Z,5.55
2023-05-24T21:13:22.636Z,4.35
2023-05-24T21:16:29.641Z,4.90
2023-05-24T21:19:35.442Z,4.85
2023-05-24T21:22:41.071Z,5.28
2023-05-24T21:25:47.689Z,5.22
2023-05-24T21:28:53.230Z,4.50
2023-05-24T21:31:59.418Z,5.25
2023-05-24T21:35:05.447Z,5.15
2023-05-24T21:38:05.338Z,5.60
2023-05-24T21:41:12.428Z,5.75
2023-05-24T21:44:20.175Z,6.70
2023-05-24T21:47:25.104Z,6.40
2023-05-24T21:50:30.153Z,6.75
2023-05-24T21:53:35.667Z,6.85
2023-05-24T21:56:41.617Z,6.20
2023-05-24T21:59:47.186Z,6.92
2023-05-24T22:02:47.182Z,6.10
2023-05-24T22:05:52.508Z,6.55
2023-05-24T22:08:57.358Z,6.37
2023-05-24T22:12:03.098Z,6.55
2023-05-24T22:15:09.387Z,6.35
2023-05-24T22:18:16.088Z,6.85
2023-05-24T22:21:22.790Z,7.35
2023-05-24T22:24:28.198Z,6.97
2023-05-24T22:27:34.563Z,6.65
2023-05-24T22:30:42.209Z,6.65
2023-05-24T22:33:48.681Z,6.78
2023-05-24T22:36:54.975Z,7.30
2023-05-24T22:40:01.056Z,6.58
2023-05-24T22:43:08.179Z,6.37
2023-05-24T22:46:13.995Z,5.92
2023-05-24T22:49:21.528Z,6.37
2023-05-24T22:52:28.225Z,6.03
2023-05-24T22:55:33.904Z,6.10
2023-05-24T22:58:40.018Z,6.65
2023-05-24T23:01:46.267Z,6.15
2023-05-24T23:04:46.663Z,6.33
2023-05-24T23:07:55.050Z,6.72
2023-05-24T23:11:01.041Z,6.33
2023-05-24T23:14:07.503Z,6.70
2023-05-24T23:17:13.425Z,6.72
2023-05-24T23:20:21.272Z,7.00
2023-05-24T23:23:28.875Z,7.03
2023-05-24T23:26:34.962Z,6.62
2023-05-24T23:29:40.951Z,7.42
2023-05-24T23:32:47.340Z,7.12
2023-05-24T23:35:47.610Z,7.33
2023-05-24T23:38:55.031Z,8.08
2023-05-24T23:42:00.568Z,7.37
2023-05-24T23:45:05.960Z,7.78
2023-05-24T23:48:11.638Z,8.35
2023-05-24T23:51:17.442Z,8.08
2023-05-24T23:54:22.542Z,8.50
2023-05-24T23:57:30.151Z,9.75
